createdAt,value
2022-11-10T00:02:09.509Z,100.00
2022-11-10T00:04:54.690Z,99.40
2022-11-10T00:07:40.355Z,98.69
2022-11-10T00:10:25.768Z,98.16
2022-11-10T00:13:11.032Z,98.12
2022-11-10T00:16:21.069Z,97.77
2022-11-10T00:19:06.261Z,97.44
2022-11-10T00:21:51.542Z,97.40
2022-11-10T00:24:36.937Z,96.83
2022-11-10T00:27:22.375Z,97.02
2022-11-10T00:30:07.866Z,97.08
2022-11-10T00:32:52.864Z,96.78
2022-11-10T00:35:38.171Z,96.96
2022-11-10T00:38:23.452Z,96.82
2022-11-10T00:41:08.721Z,96.77
2022-11-10T00:43:54.460Z,96.85
2022-11-10T00:46:39.464Z,96.43
2022-11-10T00:49:24.810Z,96.42
2022-11-10T00:52:10.357Z,96.58
2022-11-10T00:54:55.550Z,96.73
2022-11-10T00:57:40.867Z,96.37
2022-11-10T01:00:26.015Z,96.31
2022-11-10T01:03:16.642Z,96.65
2022-11-10T01:06:06.334Z,96.48
2022-11-10T01:08:51.641Z,96.56
2022-11-10T01:11:36.929Z,96.55
2022-11-10T01:14:22.283Z,96.88
2022-11-10T01:17:07.894Z,97.01
2022-11-10T01:19:53.204Z,96.94
2022-11-10T01:22:38.752Z,97.23
2022-11-10T01:25:23.670Z,97.02
2022-11-10T01:28:08.935Z,97.38
2022-11-10T01:31:11.708Z,97.54
2022-11-10T01:33:59.209Z,97.77
2022-11-10T01:36:44.521Z,98.14
2022-11-10T01:39:29.755Z,97.79
2022-11-10T01:42:15.120Z,98.07
2022-11-10T01:45:24.942Z,98.64
2022-11-10T01:48:16.510Z,98.53
2022-11-10T01:51:08.513Z,98.71
2022-11-10T01:54:01.362Z,99.34
2022-11-10T01:56:52.073Z,99.73
2022-11-10T01:59:43.122Z,100.00
2022-11-10T02:03:15.651Z,100.00
2022-11-10T02:06:01.641Z,100.00
2022-11-10T02:08:47.628Z,100.00
2022-11-10T02:11:34.479Z,100.00
2022-11-10T02:14:19.681Z,100.00
2022-11-10T02:17:05.025Z,100.00
2022-11-10T02:19:52.624Z,100.00
2022-11-10T02:22:37.877Z,100.00
2022-11-10T02:25:25.508Z,100.00
2022-11-10T02:28:10.598Z,100.00
2022-11-10T02:30:55.936Z,100.00
2022-11-10T02:33:41.343Z,100.00
2022-11-10T02:36:26.705Z,100.00
2022-11-10T02:39:11.837Z,100.00
2022-11-10T02:41:57.230Z,100.00
2022-11-10T02:44:42.961Z,100.00
2022-11-10T02:47:27.986Z,100.00
2022-11-10T02:50:13.261Z,100.00
2022-11-10T02:52:58.461Z,100.00
2022-11-10T02:55:43.614Z,100.00
2022-11-10T02:58:29.089Z,100.00
2022-11-10T03:01:14.370Z,100.00
2022-11-10T03:03:59.784Z,100.00
2022-11-10T03:06:45.358Z,100.00
2022-11-10T03:09:30.504Z,100.00
2022-11-10T03:12:16.061Z,100.00
2022-11-10T03:15:01.045Z,100.00
2022-11-10T03:17:46.315Z,100.00
2022-11-10T03:20:31.483Z,100.00
2022-11-10T03:23:18.674Z,100.00
2022-11-10T03:26:05.398Z,100.00
2022-11-10T03:28:50.807Z,100.00
2022-11-10T03:31:35.868Z,100.00
2022-11-10T03:34:21.009Z,100.00
2022-11-10T03:37:06.218Z,100.00
2022-11-10T03:39:51.460Z,99.65
2022-11-10T03:42:36.655Z,99.50
2022-11-10T03:45:21.992Z,99.18
2022-11-10T03:48:07.201Z,99.11
2022-11-10T03:50:52.667Z,99.35
2022-11-10T03:53:37.737Z,98.96
2022-11-10T03:56:23.033Z,98.60
2022-11-10T03:59:08.318Z,98.58
2022-11-10T04:01:53.727Z,98.40
2022-11-10T04:04:57.700Z,98.65
2022-11-10T04:08:01.487Z,98.63
2022-11-10T04:10:47.000Z,98.16
2022-11-10T04:13:50.897Z,97.91
2022-11-10T04:16:36.297Z,97.09
2022-11-10T04:19:21.648Z,96.43
2022-11-10T04:22:06.923Z,95.98
2022-11-10T04:24:52.144Z,96.00
2022-11-10T04:27:39.073Z,96.32
2022-11-10T04:30:24.287Z,96.75
2022-11-10T04:33:09.469Z,96.98
2022-11-10T04:35:54.990Z,97.14
2022-11-10T04:38:40.776Z,97.18
2022-11-10T04:41:27.575Z,97.37
2022-11-10T04:44:12.823Z,96.61
2022-11-10T04:46:58.068Z,96.06
2022-11-10T04:49:43.188Z,95.02
2022-11-10T04:52:28.874Z,94.70
2022-11-10T04:55:14.109Z,93.94
2022-11-10T04:57:59.405Z,94.01
2022-11-10T05:00:44.940Z,94.58
2022-11-10T05:03:30.283Z,95.10
2022-11-10T05:06:15.857Z,95.66
2022-11-10T05:09:00.910Z,95.45
2022-11-10T05:11:46.154Z,95.04
2022-11-10T05:14:31.741Z,94.63
2022-11-10T05:17:17.469Z,95.15
2022-11-10T05:20:02.943Z,95.46
2022-11-10T05:23:09.590Z,95.03
2022-11-10T05:25:54.947Z,94.01
2022-11-10T05:28:42.027Z,94.20
2022-11-10T05:31:26.874Z,94.38
2022-11-10T05:34:12.256Z,94.31
2022-11-10T05:36:57.560Z,93.44
2022-11-10T05:39:42.721Z,93.29
2022-11-10T05:42:27.993Z,92.77
2022-11-10T05:45:14.682Z,92.93
2022-11-10T05:47:59.934Z,92.31
2022-11-10T05:50:45.327Z,92.05
2022-11-10T05:53:30.557Z,92.12
2022-11-10T05:56:16.250Z,93.11
2022-11-10T05:59:01.289Z,93.15
2022-11-10T06:01:46.560Z,92.80
2022-11-10T06:04:31.802Z,92.24
2022-11-10T06:07:17.186Z,91.64
2022-11-10T06:10:02.411Z,91.25
2022-11-10T06:12:47.686Z,90.84
2022-11-10T06:15:33.247Z,90.89
2022-11-10T06:18:18.871Z,90.10
2022-11-10T06:21:04.047Z,90.09
2022-11-10T06:23:49.208Z,89.94
2022-11-10T06:26:34.687Z,90.09
2022-11-10T06:29:25.543Z,89.56
2022-11-10T06:32:12.306Z,90.03
2022-11-10T06:35:00.490Z,90.08
2022-11-10T06:37:46.459Z,89.91
2022-11-10T06:40:32.995Z,90.40
2022-11-10T06:43:18.104Z,90.84
2022-11-10T06:46:03.611Z,90.78
2022-11-10T06:48:48.475Z,90.60
2022-11-10T06:51:33.922Z,90.78
2022-11-10T07:06:25.930Z,91.44
2022-11-10T07:10:06.610Z,90.95
2022-11-10T07:12:59.829Z,91.04
2022-11-10T07:15:44.859Z,91.18
2022-11-10T07:18:30.386Z,91.57
2022-11-10T07:21:15.532Z,92.02
2022-11-10T07:24:00.810Z,92.09
2022-11-10T07:26:46.017Z,92.01
2022-11-10T07:29:31.302Z,91.64
2022-11-10T07:32:16.643Z,91.68
2022-11-10T07:35:01.726Z,91.60
2022-11-10T07:37:46.916Z,91.29
2022-11-10T07:40:33.046Z,91.01
2022-11-10T07:43:18.458Z,91.00
2022-11-10T07:46:04.020Z,90.92
2022-11-10T07:48:49.349Z,90.07
2022-11-10T07:51:34.490Z,90.00
2022-11-10T07:54:20.035Z,89.38
2022-11-10T07:57:04.872Z,89.56
2022-11-10T07:59:52.879Z,89.33
2022-11-10T08:02:40.718Z,89.48
2022-11-10T08:05:25.968Z,89.30
2022-11-10T08:08:12.061Z,89.25
2022-11-10T08:10:57.862Z,89.49
2022-11-10T08:13:43.397Z,89.36
2022-11-10T08:16:28.776Z,89.61
2022-11-10T08:19:13.947Z,90.02
2022-11-10T08:21:59.317Z,89.77
2022-11-10T08:24:44.543Z,90.17
2022-11-10T08:27:29.741Z,90.35
2022-11-10T08:30:15.308Z,89.71
2022-11-10T08:33:01.848Z,90.37
2022-11-10T08:35:49.132Z,90.22
2022-11-10T08:38:34.417Z,90.19
2022-11-10T08:41:19.543Z,90.51
2022-11-10T08:44:08.171Z,91.11
2022-11-10T08:46:56.105Z,90.20
2022-11-10T08:49:41.531Z,90.51
2022-11-10T08:52:26.894Z,90.41
2022-11-10T08:55:12.090Z,90.08
2022-11-10T08:58:02.101Z,90.25
2022-11-10T09:00:47.878Z,90.24
2022-11-10T09:03:33.117Z,90.25
2022-11-10T09:06:18.424Z,90.09
2022-11-10T09:09:03.798Z,90.15
2022-11-10T09:11:49.057Z,89.10
2022-11-10T09:14:34.420Z,89.10
2022-11-10T09:17:19.587Z,88.92
2022-11-10T09:20:06.811Z,88.98
2022-11-10T09:22:52.103Z,88.83
2022-11-10T09:25:38.364Z,89.37
2022-11-10T09:28:24.498Z,88.96
2022-11-10T09:31:09.640Z,88.30
2022-11-10T09:33:54.701Z,88.19
2022-11-10T09:36:40.446Z,88.46
2022-11-10T09:39:25.358Z,88.20
2022-11-10T09:42:38.765Z,87.87
2022-11-10T09:45:37.831Z,88.09
2022-11-10T09:48:41.975Z,88.32
2022-11-10T09:51:42.763Z,87.82
2022-11-10T09:54:49.059Z,88.12
2022-11-10T09:57:34.195Z,88.07
2022-11-10T10:00:19.721Z,88.47
2022-11-10T10:03:06.357Z,87.46
2022-11-10T10:06:05.241Z,87.42
2022-11-10T10:09:04.841Z,87.09
2022-11-10T10:11:53.134Z,87.32
2022-11-10T10:14:46.530Z,87.43
2022-11-10T10:17:53.958Z,87.13
2022-11-10T10:20:58.039Z,87.78
2022-11-10T10:24:10.039Z,87.67
2022-11-10T10:27:00.740Z,88.05
2022-11-10T10:29:49.249Z,87.97
2022-11-10T10:32:34.478Z,88.09
2022-11-10T10:35:19.802Z,88.07
2022-11-10T10:38:16.075Z,87.95
2022-11-10T10:41:12.953Z,87.57
2022-11-10T10:44:01.392Z,87.88
2022-11-10T10:46:55.308Z,87.97
2022-11-10T10:49:40.293Z,88.19
2022-11-10T10:52:26.819Z,87.88
2022-11-10T10:55:14.161Z,88.26
2022-11-10T10:58:06.368Z,88.38
2022-11-10T11:01:18.316Z,88.07
2022-11-10T11:04:27.043Z,87.52
2022-11-10T11:07:24.365Z,87.70
2022-11-10T11:10:34.390Z,87.11
2022-11-10T11:13:27.368Z,86.93
2022-11-10T11:16:12.796Z,86.76
2022-11-10T11:18:58.862Z,86.41
2022-11-10T11:21:49.993Z,86.00
2022-11-10T11:24:57.208Z,85.04
2022-11-10T11:28:20.844Z,84.60
2022-11-10T11:31:30.622Z,84.00
2022-11-10T11:34:25.674Z,83.93
2022-11-10T11:37:55.000Z,84.20
2022-11-10T11:40:58.123Z,83.76
2022-11-10T11:43:58.501Z,83.83
2022-11-10T11:46:49.499Z,83.46
2022-11-10T11:50:01.492Z,83.45
2022-11-10T11:52:49.322Z,83.22
2022-11-10T11:56:03.685Z,83.33
2022-11-10T11:59:13.725Z,83.22
2022-11-10T12:02:02.769Z,82.94
2022-11-10T12:05:19.973Z,82.23
2022-11-10T12:08:11.332Z,81.79
2022-11-10T12:11:10.460Z,81.39
2022-11-10T12:14:04.786Z,81.88
2022-11-10T12:17:02.657Z,81.72
2022-11-10T12:20:01.990Z,82.15
2022-11-10T12:22:53.018Z,82.01
2022-11-10T12:25:53.803Z,82.28
2022-11-10T12:28:47.614Z,81.98
2022-11-10T12:31:35.567Z,81.80
2022-11-10T12:34:38.881Z,81.26
2022-11-10T12:37:41.050Z,81.52
2022-11-10T12:40:55.126Z,81.25
2022-11-10T12:43:55.611Z,80.44
2022-11-10T12:46:46.985Z,79.57
2022-11-10T12:49:41.243Z,79.34
2022-11-10T12:52:43.523Z,79.12
2022-11-10T12:55:52.798Z,79.55
2022-11-10T12:58:37.787Z,79.13
2022-11-10T13:01:23.337Z,78.88
2022-11-10T13:04:08.493Z,78.24
2022-11-10T13:07:00.771Z,78.11
2022-11-10T13:09:46.380Z,77.60
2022-11-10T13:12:31.575Z,77.48
2022-11-10T13:15:35.466Z,77.99
2022-11-10T13:18:32.704Z,76.76
2022-11-10T13:21:18.297Z,76.73
2022-11-10T13:24:03.627Z,76.63
2022-11-10T13:26:50.752Z,75.17
2022-11-10T13:29:48.108Z,75.67
2022-11-10T13:51:04.493Z,75.72
2022-11-10T13:54:17.535Z,75.79
2022-11-10T14:15:23.162Z,77.68
2022-11-10T14:18:39.664Z,78.02
2022-11-10T14:21:33.862Z,78.17
2022-11-10T14:24:25.902Z,78.56
2022-11-10T14:27:20.635Z,78.15
2022-11-10T14:30:15.017Z,78.79
2022-11-10T14:33:11.516Z,78.52
2022-11-10T14:36:02.898Z,78.34
2022-11-10T14:38:48.764Z,78.21
2022-11-10T14:41:34.396Z,78.03
2022-11-10T14:44:25.991Z,77.69
2022-11-10T14:47:31.327Z,77.45
2022-11-10T14:50:24.983Z,77.83
2022-11-10T14:53:23.155Z,78.03
2022-11-10T14:56:17.039Z,78.16
2022-11-10T14:59:06.146Z,78.29
2022-11-10T15:02:00.518Z,78.35
2022-11-10T15:04:47.642Z,79.13
2022-11-10T15:07:32.973Z,78.96
2022-11-10T15:10:25.504Z,79.31
2022-11-10T15:13:13.722Z,79.67
2022-11-10T15:16:21.460Z,80.16
2022-11-10T15:19:29.807Z,80.85
2022-11-10T15:22:33.892Z,81.86
2022-11-10T15:25:22.669Z,81.77
2022-11-10T15:28:19.758Z,82.08
2022-11-10T15:31:09.804Z,81.84
2022-11-10T15:34:01.011Z,81.84
2022-11-10T15:36:46.354Z,82.65
2022-11-10T15:39:31.639Z,82.36
2022-11-10T15:42:23.084Z,82.31
2022-11-10T15:45:08.733Z,82.27
2022-11-10T15:47:53.577Z,82.03
2022-11-10T15:50:40.135Z,81.92
2022-11-10T15:53:30.897Z,81.97
2022-11-10T15:56:21.696Z,81.71
2022-11-10T15:59:06.903Z,82.02
2022-11-10T16:01:52.701Z,82.11
2022-11-10T16:04:38.235Z,81.96
2022-11-10T16:07:23.672Z,81.84
2022-11-10T16:10:09.128Z,81.73
2022-11-10T16:12:55.059Z,81.90
2022-11-10T16:15:42.157Z,82.17
2022-11-10T16:18:31.017Z,82.34
2022-11-10T16:21:19.965Z,82.92
2022-11-10T16:24:05.107Z,83.09
2022-11-10T16:26:50.412Z,83.31
2022-11-10T16:29:36.518Z,83.60
2022-11-10T16:32:21.842Z,84.20
2022-11-10T16:35:13.160Z,84.55
2022-11-10T16:37:58.278Z,84.61
2022-11-10T16:40:43.699Z,85.33
2022-11-10T16:43:30.960Z,86.06
2022-11-10T16:46:28.467Z,86.67
2022-11-10T16:49:39.643Z,87.24
2022-11-10T16:52:26.318Z,87.82
2022-11-10T16:55:13.871Z,88.87
2022-11-10T16:57:59.325Z,88.90
2022-11-10T17:00:47.267Z,89.48
2022-11-10T17:03:36.735Z,89.19
2022-11-10T17:06:24.804Z,89.29
2022-11-10T17:09:28.837Z,89.25
2022-11-10T17:12:14.877Z,90.03
2022-11-10T17:15:00.350Z,89.89
2022-11-10T17:17:48.483Z,89.94
2022-11-10T17:20:37.908Z,90.26
2022-11-10T17:23:25.609Z,89.38
2022-11-10T17:26:17.655Z,89.08
2022-11-10T17:29:03.191Z,89.42
2022-11-10T17:31:50.323Z,89.84
2022-11-10T17:34:35.485Z,90.18
2022-11-10T17:37:20.714Z,90.48
2022-11-10T17:40:27.479Z,90.88
2022-11-10T17:43:13.402Z,91.08
2022-11-10T17:45:58.441Z,91.27
2022-11-10T17:48:43.976Z,90.92
2022-11-10T17:51:31.964Z,90.95
2022-11-10T17:54:17.627Z,90.33
2022-11-10T17:57:04.479Z,90.97
2022-11-10T17:59:49.819Z,90.21
2022-11-10T18:02:35.119Z,90.29
2022-11-10T18:05:20.601Z,90.40
2022-11-10T18:08:05.642Z,89.96
2022-11-10T18:10:52.465Z,90.03
2022-11-10T18:13:39.154Z,90.63
2022-11-10T18:16:24.635Z,90.67
2022-11-10T18:19:10.603Z,90.32
2022-11-10T18:21:55.899Z,90.28
2022-11-10T18:24:42.534Z,90.19
2022-11-10T18:27:30.576Z,89.93
2022-11-10T18:30:17.044Z,90.26
2022-11-10T18:33:03.361Z,90.05
2022-11-10T18:35:48.716Z,89.68
2022-11-10T18:38:33.994Z,90.06
2022-11-10T18:41:37.709Z,90.50
2022-11-10T18:44:22.889Z,90.01
2022-11-10T18:47:11.770Z,89.75
2022-11-10T18:49:56.719Z,89.47
2022-11-10T18:52:42.016Z,89.55
2022-11-10T18:55:27.246Z,89.39
2022-11-10T18:58:12.514Z,89.07
2022-11-10T19:01:09.448Z,88.98
2022-11-10T19:03:54.888Z,88.61
2022-11-10T19:06:40.667Z,88.65
2022-11-10T19:09:26.052Z,87.27
2022-11-10T19:12:11.954Z,85.62
2022-11-10T19:14:57.184Z,85.05
2022-11-10T19:17:42.450Z,85.51
2022-11-10T19:20:27.805Z,84.93
2022-11-10T19:23:12.883Z,83.93
2022-11-10T19:26:05.862Z,84.13
2022-11-10T19:28:53.461Z,83.91
2022-11-10T19:31:38.671Z,84.18
2022-11-10T19:34:23.949Z,83.46
2022-11-10T19:37:09.190Z,83.41
2022-11-10T19:39:54.338Z,83.07
2022-11-10T19:42:39.697Z,83.51
2022-11-10T19:45:24.915Z,84.25
2022-11-10T19:48:10.185Z,84.49
2022-11-10T19:50:56.619Z,83.63
2022-11-10T19:53:43.401Z,84.27
2022-11-10T19:56:32.144Z,84.16
2022-11-10T19:59:19.309Z,84.04
2022-11-10T20:02:04.636Z,82.94
2022-11-10T20:05:19.064Z,82.32
2022-11-10T20:08:12.059Z,83.03
2022-11-10T20:11:21.447Z,82.98
2022-11-10T20:14:07.014Z,82.53
2022-11-10T20:16:53.433Z,82.38
2022-11-10T20:19:41.253Z,82.63
2022-11-10T20:22:26.918Z,83.23
2022-11-10T20:25:12.289Z,82.74
2022-11-10T20:27:58.864Z,82.22
2022-11-10T20:30:44.487Z,81.87
2022-11-10T20:33:31.261Z,81.61
2022-11-10T20:36:36.881Z,81.71
2022-11-10T20:39:22.384Z,81.22
2022-11-10T20:42:07.617Z,81.08
2022-11-10T20:44:52.954Z,81.15
2022-11-10T20:47:38.264Z,81.17
2022-11-10T20:50:24.637Z,81.57
2022-11-10T20:53:10.090Z,81.61
2022-11-10T20:55:57.920Z,81.11
2022-11-10T20:58:43.091Z,81.38
2022-11-10T21:01:28.590Z,81.54
2022-11-10T21:04:13.857Z,81.22
2022-11-10T21:06:59.073Z,81.54
2022-11-10T21:09:44.185Z,81.31
2022-11-10T21:12:50.881Z,81.77
2022-11-10T21:15:40.080Z,81.82
2022-11-10T21:18:28.536Z,81.93
2022-11-10T21:21:34.457Z,81.86
2022-11-10T21:24:20.033Z,81.39
2022-11-10T21:27:05.508Z,81.71
2022-11-10T21:29:50.702Z,82.10
2022-11-10T21:32:35.996Z,81.87
2022-11-10T21:35:21.754Z,81.71
2022-11-10T21:38:07.353Z,81.01
2022-11-10T21:40:53.055Z,81.48
2022-11-10T21:43:38.863Z,81.69
2022-11-10T21:46:24.602Z,82.14
2022-11-10T21:49:09.915Z,82.11
2022-11-10T21:51:55.153Z,82.29
2022-11-10T21:54:40.471Z,82.64
2022-11-10T21:57:25.724Z,82.52
2022-11-10T22:00:11.020Z,82.68
2022-11-10T22:03:01.047Z,82.75
2022-11-10T22:05:46.083Z,82.85
2022-11-10T22:08:32.037Z,83.25
2022-11-10T22:11:38.020Z,83.83
2022-11-10T22:14:41.703Z,84.13
2022-11-10T22:17:45.403Z,85.48
2022-11-10T22:20:30.574Z,85.60
2022-11-10T22:23:15.868Z,84.94
2022-11-10T22:26:01.037Z,85.59
2022-11-10T22:28:46.816Z,84.97
2022-11-10T22:31:33.808Z,85.55
2022-11-10T22:34:20.175Z,86.09
2022-11-10T22:37:05.529Z,86.15
2022-11-10T22:40:09.245Z,85.53
2022-11-10T22:43:12.980Z,85.61
2022-11-10T22:45:58.358Z,85.40
2022-11-10T22:48:43.503Z,85.75
2022-11-10T22:51:30.707Z,85.55
2022-11-10T22:54:20.961Z,85.95
2022-11-10T22:57:06.410Z,85.43
2022-11-10T22:59:51.645Z,85.65
2022-11-10T23:02:36.883Z,85.88
2022-11-10T23:05:22.155Z,85.84
2022-11-10T23:08:07.513Z,85.89
2022-11-10T23:11:04.606Z,85.60
2022-11-10T23:13:50.695Z,85.55
2022-11-10T23:16:36.006Z,85.54
2022-11-10T23:19:21.290Z,84.99
2022-11-10T23:22:06.655Z,84.48
2022-11-10T23:24:57.056Z,84.73
2022-11-10T23:27:42.812Z,84.02
2022-11-10T23:30:28.333Z,84.38
2022-11-10T23:33:13.715Z,84.08
2022-11-10T23:35:58.877Z,84.03
2022-11-10T23:38:45.814Z,84.19
2022-11-10T23:41:31.415Z,84.02
2022-11-10T23:44:16.717Z,83.88
2022-11-10T23:47:02.001Z,84.21
2022-11-10T23:49:47.522Z,84.38
2022-11-10T23:52:35.194Z,84.42
2022-11-10T23:55:20.213Z,84.37
2022-11-10T23:58:05.640Z,84.53
